Terminal Aerodrome Forecast
Issued by NWS Wakefield, VA

Home | Current Version | Previous Version | Text Only | Print | Product List | Glossary On
Versions: 1 2 3 4 5 6 7 8 9 10 11 12 13 14 15 16 17 18 19 20
000
FTUS41 KAKQ 281700
TAFRIC
TAF
KRIC 281723Z 2818/0118 02005KT P6SM OVC200
     FM282000 06005KT P6SM FEW030 OVC120
     FM010700 08007KT P6SM BKN050 OVC100
     FM011300 06003KT 6SM -RAPL BR OVC030
     FM011600 06004KT 3SM -RA BR OVC015=

USA.gov is the U.S. government's official web portal to all federal, state and local government web resources and services.